sensor_id;sensor_type;location;lat;lon;timestamp;temperature;humidity
11239;DHT22;5677;48.488;13.436;2023-08-31T00:00:08;19.80;64.90
11239;DHT22;5677;48.488;13.436;2023-08-31T00:02:37;19.80;64.70
11239;DHT22;5677;48.488;13.436;2023-08-31T00:05:05;19.80;64.70
11239;DHT22;5677;48.488;13.436;2023-08-31T00:07:32;19.80;64.70
11239;DHT22;5677;48.488;13.436;2023-08-31T00:09:59;19.80;64.90
11239;DHT22;5677;48.488;13.436;2023-08-31T00:12:33;19.80;64.90
11239;DHT22;5677;48.488;13.436;2023-08-31T00:15:00;19.80;64.90
11239;DHT22;5677;48.488;13.436;2023-08-31T00:17:29;19.80;64.90
11239;DHT22;5677;48.488;13.436;2023-08-31T00:19:56;19.80;64.90
11239;DHT22;5677;48.488;13.436;2023-08-31T00:22:23;19.80;64.90
11239;DHT22;5677;48.488;13.436;2023-08-31T00:24:50;19.80;65.00
11239;DHT22;5677;48.488;13.436;2023-08-31T00:27:18;19.80;64.90
11239;DHT22;5677;48.488;13.436;2023-08-31T00:29:48;19.80;64.90
11239;DHT22;5677;48.488;13.436;2023-08-31T00:32:16;19.80;65.00
11239;DHT22;5677;48.488;13.436;2023-08-31T00:34:44;19.80;65.00
11239;DHT22;5677;48.488;13.436;2023-08-31T00:37:11;19.80;65.00
11239;DHT22;5677;48.488;13.436;2023-08-31T00:39:38;19.80;65.00
11239;DHT22;5677;48.488;13.436;2023-08-31T00:42:05;19.80;65.00
11239;DHT22;5677;48.488;13.436;2023-08-31T00:44:33;19.80;65.00
11239;DHT22;5677;48.488;13.436;2023-08-31T00:47:01;19.80;65.00
11239;DHT22;5677;48.488;13.436;2023-08-31T00:49:29;19.80;65.00
11239;DHT22;5677;48.488;13.436;2023-08-31T00:51:56;19.80;65.00
11239;DHT22;5677;48.488;13.436;2023-08-31T00:54:23;19.80;64.90
11239;DHT22;5677;48.488;13.436;2023-08-31T00:56:53;19.80;64.90
11239;DHT22;5677;48.488;13.436;2023-08-31T00:59:20;19.80;64.60
11239;DHT22;5677;48.488;13.436;2023-08-31T01:01:54;19.80;64.90
11239;DHT22;5677;48.488;13.436;2023-08-31T01:04:34;19.80;64.70
11239;DHT22;5677;48.488;13.436;2023-08-31T01:07:17;19.80;64.70
11239;DHT22;5677;48.488;13.436;2023-08-31T01:09:57;19.80;64.70
11239;DHT22;5677;48.488;13.436;2023-08-31T01:12:36;19.70;64.70
11239;DHT22;5677;48.488;13.436;2023-08-31T01:15:11;19.70;64.70
11239;DHT22;5677;48.488;13.436;2023-08-31T01:17:41;19.80;64.90
11239;DHT22;5677;48.488;13.436;2023-08-31T01:20:16;19.80;64.70
11239;DHT22;5677;48.488;13.436;2023-08-31T01:22:51;19.70;64.70
11239;DHT22;5677;48.488;13.436;2023-08-31T01:25:26;19.70;64.60
11239;DHT22;5677;48.488;13.436;2023-08-31T01:27:53;19.70;64.70
11239;DHT22;5677;48.488;13.436;2023-08-31T01:30:20;19.80;64.90
11239;DHT22;5677;48.488;13.436;2023-08-31T01:32:47;19.70;65.00
11239;DHT22;5677;48.488;13.436;2023-08-31T01:35:16;19.70;65.00
11239;DHT22;5677;48.488;13.436;2023-08-31T01:37:49;19.70;64.80
11239;DHT22;5677;48.488;13.436;2023-08-31T01:40:22;19.70;64.90
11239;DHT22;5677;48.488;13.436;2023-08-31T01:42:55;19.70;64.90
11239;DHT22;5677;48.488;13.436;2023-08-31T01:45:22;19.70;65.10
11239;DHT22;5677;48.488;13.436;2023-08-31T01:47:51;19.70;64.90
11239;DHT22;5677;48.488;13.436;2023-08-31T01:50:18;19.70;65.20
11239;DHT22;5677;48.488;13.436;2023-08-31T01:52:45;19.70;65.10
11239;DHT22;5677;48.488;13.436;2023-08-31T01:55:12;19.70;65.10
11239;DHT22;5677;48.488;13.436;2023-08-31T01:57:42;19.70;65.10
11239;DHT22;5677;48.488;13.436;2023-08-31T02:00:10;19.80;65.20
11239;DHT22;5677;48.488;13.436;2023-08-31T02:02:38;19.70;64.90
11239;DHT22;5677;48.488;13.436;2023-08-31T02:05:06;19.80;65.10
11239;DHT22;5677;48.488;13.436;2023-08-31T02:07:33;19.80;64.80
11239;DHT22;5677;48.488;13.436;2023-08-31T02:10:00;19.80;65.00
11239;DHT22;5677;48.488;13.436;2023-08-31T02:12:27;19.80;64.90
11239;DHT22;5677;48.488;13.436;2023-08-31T02:14:55;19.70;64.90
11239;DHT22;5677;48.488;13.436;2023-08-31T02:17:22;19.80;64.90
11239;DHT22;5677;48.488;13.436;2023-08-31T02:19:50;19.70;64.90
11239;DHT22;5677;48.488;13.436;2023-08-31T02:22:17;19.70;64.90
11239;DHT22;5677;48.488;13.436;2023-08-31T02:24:44;19.70;64.80
11239;DHT22;5677;48.488;13.436;2023-08-31T02:27:11;19.80;64.80
11239;DHT22;5677;48.488;13.436;2023-08-31T02:29:38;19.70;64.80
11239;DHT22;5677;48.488;13.436;2023-08-31T02:32:07;19.80;64.80
11239;DHT22;5677;48.488;13.436;2023-08-31T02:34:34;19.70;64.80
11239;DHT22;5677;48.488;13.436;2023-08-31T02:37:01;19.70;64.90
11239;DHT22;5677;48.488;13.436;2023-08-31T02:39:28;19.70;64.80
11239;DHT22;5677;48.488;13.436;2023-08-31T02:41:55;19.70;64.80
11239;DHT22;5677;48.488;13.436;2023-08-31T02:44:22;19.70;64.80
11239;DHT22;5677;48.488;13.436;2023-08-31T02:46:50;19.70;64.80
11239;DHT22;5677;48.488;13.436;2023-08-31T02:49:18;19.70;64.80
11239;DHT22;5677;48.488;13.436;2023-08-31T02:51:45;19.70;64.80
11239;DHT22;5677;48.488;13.436;2023-08-31T02:54:12;19.70;64.80
11239;DHT22;5677;48.488;13.436;2023-08-31T02:56:39;19.70;64.80
11239;DHT22;5677;48.488;13.436;2023-08-31T02:59:06;19.70;64.80
11239;DHT22;5677;48.488;13.436;2023-08-31T03:01:33;19.70;64.80
11239;DHT22;5677;48.488;13.436;2023-08-31T03:04:00;19.70;64.80
11239;DHT22;5677;48.488;13.436;2023-08-31T03:06:28;19.70;64.80
11239;DHT22;5677;48.488;13.436;2023-08-31T03:08:58;19.70;64.60
11239;DHT22;5677;48.488;13.436;2023-08-31T03:11:25;19.70;64.80
11239;DHT22;5677;48.488;13.436;2023-08-31T03:13:52;19.70;64.80
11239;DHT22;5677;48.488;13.436;2023-08-31T03:16:19;19.70;64.90
11239;DHT22;5677;48.488;13.436;2023-08-31T03:18:46;19.70;64.90
11239;DHT22;5677;48.488;13.436;2023-08-31T03:21:12;19.70;64.90
11239;DHT22;5677;48.488;13.436;2023-08-31T03:23:41;19.70;64.90
11239;DHT22;5677;48.488;13.436;2023-08-31T03:26:08;19.70;64.90
11239;DHT22;5677;48.488;13.436;2023-08-31T03:28:35;19.70;64.60
11239;DHT22;5677;48.488;13.436;2023-08-31T03:31:04;19.70;64.90
11239;DHT22;5677;48.488;13.436;2023-08-31T03:33:30;19.70;64.80
11239;DHT22;5677;48.488;13.436;2023-08-31T03:36:00;19.70;64.90
11239;DHT22;5677;48.488;13.436;2023-08-31T03:38:29;19.70;65.50
11239;DHT22;5677;48.488;13.436;2023-08-31T03:40:58;19.70;64.80
11239;DHT22;5677;48.488;13.436;2023-08-31T03:43:25;19.70;64.90
11239;DHT22;5677;48.488;13.436;2023-08-31T03:45:55;19.70;64.90
11239;DHT22;5677;48.488;13.436;2023-08-31T03:48:23;19.70;64.60
11239;DHT22;5677;48.488;13.436;2023-08-31T03:50:50;19.70;64.80
11239;DHT22;5677;48.488;13.436;2023-08-31T03:53:18;19.70;64.90
11239;DHT22;5677;48.488;13.436;2023-08-31T03:55:45;19.70;64.80
11239;DHT22;5677;48.488;13.436;2023-08-31T03:58:14;19.70;64.80
11239;DHT22;5677;48.488;13.436;2023-08-31T04:00:41;19.70;64.90
11239;DHT22;5677;48.488;13.436;2023-08-31T04:03:09;19.70;64.80
11239;DHT22;5677;48.488;13.436;2023-08-31T04:05:36;19.70;65.40
11239;DHT22;5677;48.488;13.436;2023-08-31T04:08:03;19.70;64.80
11239;DHT22;5677;48.488;13.436;2023-08-31T04:10:31;19.70;64.60
11239;DHT22;5677;48.488;13.436;2023-08-31T04:12:58;19.70;64.80
11239;DHT22;5677;48.488;13.436;2023-08-31T04:15:26;19.70;64.80
11239;DHT22;5677;48.488;13.436;2023-08-31T04:17:53;19.70;64.80
11239;DHT22;5677;48.488;13.436;2023-08-31T04:20:20;19.70;64.80
11239;DHT22;5677;48.488;13.436;2023-08-31T04:22:47;19.70;64.80
11239;DHT22;5677;48.488;13.436;2023-08-31T04:25:14;19.70;64.80
11239;DHT22;5677;48.488;13.436;2023-08-31T04:27:41;19.70;64.80
11239;DHT22;5677;48.488;13.436;2023-08-31T04:30:11;19.70;64.90
11239;DHT22;5677;48.488;13.436;2023-08-31T04:32:39;19.70;64.60
11239;DHT22;5677;48.488;13.436;2023-08-31T04:35:07;19.70;64.80
11239;DHT22;5677;48.488;13.436;2023-08-31T04:37:34;19.70;64.60
11239;DHT22;5677;48.488;13.436;2023-08-31T04:40:01;19.70;64.80
11239;DHT22;5677;48.488;13.436;2023-08-31T04:42:29;19.70;64.80
11239;DHT22;5677;48.488;13.436;2023-08-31T04:44:56;19.70;64.80
11239;DHT22;5677;48.488;13.436;2023-08-31T04:47:23;19.70;64.80
11239;DHT22;5677;48.488;13.436;2023-08-31T04:49:51;19.70;64.80
11239;DHT22;5677;48.488;13.436;2023-08-31T04:52:18;19.60;64.70
11239;DHT22;5677;48.488;13.436;2023-08-31T04:54:45;19.60;64.70
11239;DHT22;5677;48.488;13.436;2023-08-31T04:57:12;19.70;64.70
11239;DHT22;5677;48.488;13.436;2023-08-31T04:59:39;19.60;64.60
11239;DHT22;5677;48.488;13.436;2023-08-31T05:02:06;19.70;64.80
11239;DHT22;5677;48.488;13.436;2023-08-31T05:04:33;19.60;64.60
11239;DHT22;5677;48.488;13.436;2023-08-31T05:07:01;19.60;64.60
11239;DHT22;5677;48.488;13.436;2023-08-31T05:09:28;19.60;64.60
11239;DHT22;5677;48.488;13.436;2023-08-31T05:12:00;19.60;64.60
11239;DHT22;5677;48.488;13.436;2023-08-31T05:14:27;19.60;64.60
11239;DHT22;5677;48.488;13.436;2023-08-31T05:16:54;19.60;64.60
11239;DHT22;5677;48.488;13.436;2023-08-31T05:19:21;19.70;64.80
11239;DHT22;5677;48.488;13.436;2023-08-31T05:21:48;19.70;65.60
11239;DHT22;5677;48.488;13.436;2023-08-31T05:24:16;19.70;64.80
11239;DHT22;5677;48.488;13.436;2023-08-31T05:26:43;19.70;64.80
11239;DHT22;5677;48.488;13.436;2023-08-31T05:29:10;19.60;64.70
11239;DHT22;5677;48.488;13.436;2023-08-31T05:31:37;19.70;64.70
11239;DHT22;5677;48.488;13.436;2023-08-31T05:34:04;19.60;64.70
11239;DHT22;5677;48.488;13.436;2023-08-31T05:36:31;19.70;64.80
11239;DHT22;5677;48.488;13.436;2023-08-31T05:38:58;19.70;64.80
11239;DHT22;5677;48.488;13.436;2023-08-31T05:41:26;19.60;64.60
11239;DHT22;5677;48.488;13.436;2023-08-31T05:43:53;19.70;64.70
11239;DHT22;5677;48.488;13.436;2023-08-31T05:46:20;19.60;64.60
11239;DHT22;5677;48.488;13.436;2023-08-31T05:48:47;19.70;64.90
11239;DHT22;5677;48.488;13.436;2023-08-31T05:51:14;19.70;65.10
11239;DHT22;5677;48.488;13.436;2023-08-31T05:53:41;19.70;65.10
11239;DHT22;5677;48.488;13.436;2023-08-31T05:56:08;19.70;65.10
11239;DHT22;5677;48.488;13.436;2023-08-31T05:58:36;19.70;65.00
11239;DHT22;5677;48.488;13.436;2023-08-31T06:01:04;19.70;64.90
11239;DHT22;5677;48.488;13.436;2023-08-31T06:03:32;19.70;64.50
11239;DHT22;5677;48.488;13.436;2023-08-31T06:05:59;19.70;64.80
11239;DHT22;5677;48.488;13.436;2023-08-31T06:08:27;19.70;64.60
11239;DHT22;5677;48.488;13.436;2023-08-31T06:10:55;19.80;64.60
11239;DHT22;5677;48.488;13.436;2023-08-31T06:13:21;19.70;63.30
11239;DHT22;5677;48.488;13.436;2023-08-31T06:15:50;19.70;64.10
11239;DHT22;5677;48.488;13.436;2023-08-31T06:18:17;19.70;64.40
11239;DHT22;5677;48.488;13.436;2023-08-31T06:20:44;19.70;64.50
11239;DHT22;5677;48.488;13.436;2023-08-31T06:23:11;19.70;64.50
11239;DHT22;5677;48.488;13.436;2023-08-31T06:25:38;19.70;64.40
11239;DHT22;5677;48.488;13.436;2023-08-31T06:28:05;19.70;64.20
11239;DHT22;5677;48.488;13.436;2023-08-31T06:30:34;19.70;63.40
11239;DHT22;5677;48.488;13.436;2023-08-31T06:33:03;19.60;63.40
11239;DHT22;5677;48.488;13.436;2023-08-31T06:35:30;19.60;63.40
11239;DHT22;5677;48.488;13.436;2023-08-31T06:37:57;19.60;63.00
11239;DHT22;5677;48.488;13.436;2023-08-31T06:40:24;19.60;63.00
11239;DHT22;5677;48.488;13.436;2023-08-31T06:42:51;19.50;63.40
11239;DHT22;5677;48.488;13.436;2023-08-31T06:45:18;19.50;63.00
11239;DHT22;5677;48.488;13.436;2023-08-31T06:47:45;19.50;62.70
11239;DHT22;5677;48.488;13.436;2023-08-31T06:50:14;19.40;62.70
11239;DHT22;5677;48.488;13.436;2023-08-31T06:52:41;19.40;63.20
11239;DHT22;5677;48.488;13.436;2023-08-31T06:55:09;19.40;63.00
11239;DHT22;5677;48.488;13.436;2023-08-31T06:57:37;19.40;63.40
11239;DHT22;5677;48.488;13.436;2023-08-31T07:00:05;19.40;63.30
11239;DHT22;5677;48.488;13.436;2023-08-31T07:02:34;19.30;62.60
11239;DHT22;5677;48.488;13.436;2023-08-31T07:05:01;19.30;63.20
11239;DHT22;5677;48.488;13.436;2023-08-31T07:07:30;19.30;63.40
11239;DHT22;5677;48.488;13.436;2023-08-31T07:09:57;19.30;63.40
11239;DHT22;5677;48.488;13.436;2023-08-31T07:12:25;19.40;63.40
11239;DHT22;5677;48.488;13.436;2023-08-31T07:14:52;19.40;63.30
11239;DHT22;5677;48.488;13.436;2023-08-31T07:17:19;19.40;63.10
11239;DHT22;5677;48.488;13.436;2023-08-31T07:19:46;19.40;63.00
11239;DHT22;5677;48.488;13.436;2023-08-31T07:22:13;19.40;63.00
11239;DHT22;5677;48.488;13.436;2023-08-31T07:24:41;19.40;63.00
11239;DHT22;5677;48.488;13.436;2023-08-31T07:27:09;19.50;63.10
11239;DHT22;5677;48.488;13.436;2023-08-31T07:29:36;19.50;63.00
11239;DHT22;5677;48.488;13.436;2023-08-31T07:32:03;19.50;62.90
11239;DHT22;5677;48.488;13.436;2023-08-31T07:34:30;19.50;62.90
11239;DHT22;5677;48.488;13.436;2023-08-31T07:36:59;19.50;62.90
11239;DHT22;5677;48.488;13.436;2023-08-31T07:39:26;19.50;62.70
11239;DHT22;5677;48.488;13.436;2023-08-31T07:41:54;19.50;62.90
11239;DHT22;5677;48.488;13.436;2023-08-31T07:44:23;19.50;62.90
11239;DHT22;5677;48.488;13.436;2023-08-31T07:46:50;19.60;63.50
11239;DHT22;5677;48.488;13.436;2023-08-31T07:49:17;19.50;62.90
11239;DHT22;5677;48.488;13.436;2023-08-31T07:51:44;19.50;63.00
11239;DHT22;5677;48.488;13.436;2023-08-31T07:54:11;19.50;62.90
11239;DHT22;5677;48.488;13.436;2023-08-31T07:56:37;19.50;63.00
11239;DHT22;5677;48.488;13.436;2023-08-31T07:59:08;19.60;63.00
11239;DHT22;5677;48.488;13.436;2023-08-31T08:01:35;19.60;63.00
11239;DHT22;5677;48.488;13.436;2023-08-31T08:04:02;19.50;63.00
11239;DHT22;5677;48.488;13.436;2023-08-31T08:06:29;19.50;63.00
11239;DHT22;5677;48.488;13.436;2023-08-31T08:08:56;19.50;63.00
11239;DHT22;5677;48.488;13.436;2023-08-31T08:11:23;19.50;62.60
11239;DHT22;5677;48.488;13.436;2023-08-31T08:13:50;19.50;62.30
11239;DHT22;5677;48.488;13.436;2023-08-31T08:16:18;19.50;62.60
11239;DHT22;5677;48.488;13.436;2023-08-31T08:18:45;19.50;62.90
11239;DHT22;5677;48.488;13.436;2023-08-31T08:21:12;19.40;62.50
11239;DHT22;5677;48.488;13.436;2023-08-31T08:23:39;19.40;62.00
11239;DHT22;5677;48.488;13.436;2023-08-31T08:26:06;19.30;62.90
11239;DHT22;5677;48.488;13.436;2023-08-31T08:28:33;19.40;63.10
11239;DHT22;5677;48.488;13.436;2023-08-31T08:31:01;19.40;63.20
11239;DHT22;5677;48.488;13.436;2023-08-31T08:33:30;19.40;63.10
11239;DHT22;5677;48.488;13.436;2023-08-31T08:35:57;19.40;63.10
11239;DHT22;5677;48.488;13.436;2023-08-31T08:38:25;19.40;63.90
11239;DHT22;5677;48.488;13.436;2023-08-31T08:40:52;19.40;63.00
11239;DHT22;5677;48.488;13.436;2023-08-31T08:43:24;19.40;63.00
11239;DHT22;5677;48.488;13.436;2023-08-31T08:45:53;19.50;62.80
11239;DHT22;5677;48.488;13.436;2023-08-31T08:48:21;19.50;62.70
11239;DHT22;5677;48.488;13.436;2023-08-31T08:50:50;19.50;63.00
11239;DHT22;5677;48.488;13.436;2023-08-31T08:53:18;19.50;62.70
11239;DHT22;5677;48.488;13.436;2023-08-31T08:55:45;19.50;62.90
11239;DHT22;5677;48.488;13.436;2023-08-31T08:58:11;19.50;62.90
11239;DHT22;5677;48.488;13.436;2023-08-31T09:00:39;19.50;62.90
11239;DHT22;5677;48.488;13.436;2023-08-31T09:03:07;19.50;62.60
11239;DHT22;5677;48.488;13.436;2023-08-31T09:05:34;19.50;62.90
11239;DHT22;5677;48.488;13.436;2023-08-31T09:08:05;19.50;62.90
11239;DHT22;5677;48.488;13.436;2023-08-31T09:10:36;19.50;62.60
11239;DHT22;5677;48.488;13.436;2023-08-31T09:13:07;19.50;62.60
11239;DHT22;5677;48.488;13.436;2023-08-31T09:15:43;19.60;62.60
11239;DHT22;5677;48.488;13.436;2023-08-31T09:18:14;19.60;62.50
11239;DHT22;5677;48.488;13.436;2023-08-31T09:20:48;19.60;62.50
11239;DHT22;5677;48.488;13.436;2023-08-31T09:23:18;19.60;62.80
11239;DHT22;5677;48.488;13.436;2023-08-31T09:25:46;19.60;62.70
11239;DHT22;5677;48.488;13.436;2023-08-31T09:28:15;19.60;62.40
11239;DHT22;5677;48.488;13.436;2023-08-31T09:30:44;19.60;62.40
11239;DHT22;5677;48.488;13.436;2023-08-31T09:33:14;19.60;62.40
11239;DHT22;5677;48.488;13.436;2023-08-31T09:35:47;19.60;62.40
11239;DHT22;5677;48.488;13.436;2023-08-31T09:38:17;19.60;62.30
11239;DHT22;5677;48.488;13.436;2023-08-31T09:40:45;19.60;62.20
11239;DHT22;5677;48.488;13.436;2023-08-31T09:43:12;19.60;62.50
11239;DHT22;5677;48.488;13.436;2023-08-31T09:45:46;19.60;62.70
11239;DHT22;5677;48.488;13.436;2023-08-31T09:48:15;19.60;62.60
11239;DHT22;5677;48.488;13.436;2023-08-31T09:50:44;19.60;62.50
11239;DHT22;5677;48.488;13.436;2023-08-31T09:53:11;19.60;62.40
11239;DHT22;5677;48.488;13.436;2023-08-31T09:55:40;19.60;62.30
11239;DHT22;5677;48.488;13.436;2023-08-31T09:58:09;19.60;62.30
11239;DHT22;5677;48.488;13.436;2023-08-31T10:00:37;19.60;62.50
11239;DHT22;5677;48.488;13.436;2023-08-31T10:03:05;19.60;62.50
11239;DHT22;5677;48.488;13.436;2023-08-31T10:05:32;19.70;62.50
11239;DHT22;5677;48.488;13.436;2023-08-31T10:08:00;19.70;62.50
11239;DHT22;5677;48.488;13.436;2023-08-31T10:10:28;19.70;62.20
11239;DHT22;5677;48.488;13.436;2023-08-31T10:12:58;19.70;62.20
11239;DHT22;5677;48.488;13.436;2023-08-31T10:15:31;19.70;62.20
11239;DHT22;5677;48.488;13.436;2023-08-31T10:18:01;19.70;62.10
11239;DHT22;5677;48.488;13.436;2023-08-31T10:20:30;19.70;62.10
11239;DHT22;5677;48.488;13.436;2023-08-31T10:22:59;19.70;62.00
11239;DHT22;5677;48.488;13.436;2023-08-31T10:26:03;19.70;61.90
11239;DHT22;5677;48.488;13.436;2023-08-31T10:28:40;19.70;61.90
11239;DHT22;5677;48.488;13.436;2023-08-31T10:31:09;19.70;61.70
11239;DHT22;5677;48.488;13.436;2023-08-31T10:33:40;19.70;61.70
11239;DHT22;5677;48.488;13.436;2023-08-31T10:36:11;19.70;61.90
11239;DHT22;5677;48.488;13.436;2023-08-31T10:38:40;19.70;61.60
11239;DHT22;5677;48.488;13.436;2023-08-31T10:41:20;19.70;61.50
11239;DHT22;5677;48.488;13.436;2023-08-31T10:43:50;19.70;61.50
11239;DHT22;5677;48.488;13.436;2023-08-31T10:46:20;19.70;61.50
11239;DHT22;5677;48.488;13.436;2023-08-31T10:48:53;19.70;61.40
11239;DHT22;5677;48.488;13.436;2023-08-31T10:51:25;19.70;61.30
11239;DHT22;5677;48.488;13.436;2023-08-31T10:54:04;19.70;61.30
11239;DHT22;5677;48.488;13.436;2023-08-31T10:56:38;19.70;61.30
11239;DHT22;5677;48.488;13.436;2023-08-31T10:59:17;19.70;61.10
11239;DHT22;5677;48.488;13.436;2023-08-31T11:01:56;19.70;61.00
11239;DHT22;5677;48.488;13.436;2023-08-31T11:04:26;19.70;61.00
11239;DHT22;5677;48.488;13.436;2023-08-31T11:07:13;19.70;60.90
11239;DHT22;5677;48.488;13.436;2023-08-31T11:09:41;19.70;60.90
11239;DHT22;5677;48.488;13.436;2023-08-31T11:12:11;19.70;60.80
11239;DHT22;5677;48.488;13.436;2023-08-31T11:14:39;19.70;60.70
11239;DHT22;5677;48.488;13.436;2023-08-31T11:17:06;19.70;60.90
11239;DHT22;5677;48.488;13.436;2023-08-31T11:19:35;19.70;60.70
11239;DHT22;5677;48.488;13.436;2023-08-31T11:22:05;19.70;60.40
11239;DHT22;5677;48.488;13.436;2023-08-31T11:24:35;19.80;60.40
11239;DHT22;5677;48.488;13.436;2023-08-31T11:27:02;19.80;60.70
11239;DHT22;5677;48.488;13.436;2023-08-31T11:29:37;19.80;60.70
11239;DHT22;5677;48.488;13.436;2023-08-31T11:32:06;19.80;60.40
11239;DHT22;5677;48.488;13.436;2023-08-31T11:34:33;19.80;60.60
11239;DHT22;5677;48.488;13.436;2023-08-31T11:37:00;19.80;60.50
11239;DHT22;5677;48.488;13.436;2023-08-31T11:39:28;19.80;60.40
11239;DHT22;5677;48.488;13.436;2023-08-31T11:41:55;19.80;60.20
11239;DHT22;5677;48.488;13.436;2023-08-31T11:44:23;19.80;59.60
11239;DHT22;5677;48.488;13.436;2023-08-31T11:46:52;19.80;59.50
11239;DHT22;5677;48.488;13.436;2023-08-31T11:49:19;19.80;59.20
11239;DHT22;5677;48.488;13.436;2023-08-31T11:51:48;19.80;59.00
11239;DHT22;5677;48.488;13.436;2023-08-31T11:54:16;19.70;58.00
11239;DHT22;5677;48.488;13.436;2023-08-31T11:56:44;19.70;58.30
11239;DHT22;5677;48.488;13.436;2023-08-31T11:59:15;19.70;58.90
11239;DHT22;5677;48.488;13.436;2023-08-31T12:01:45;19.70;58.20
11239;DHT22;5677;48.488;13.436;2023-08-31T12:04:15;19.70;58.50
11239;DHT22;5677;48.488;13.436;2023-08-31T12:06:49;19.70;57.80
11239;DHT22;5677;48.488;13.436;2023-08-31T12:09:17;19.70;58.40
11239;DHT22;5677;48.488;13.436;2023-08-31T12:11:49;19.60;57.80
11239;DHT22;5677;48.488;13.436;2023-08-31T12:14:21;19.60;58.10
11239;DHT22;5677;48.488;13.436;2023-08-31T12:16:50;19.60;58.60
11239;DHT22;5677;48.488;13.436;2023-08-31T12:19:19;19.60;58.50
11239;DHT22;5677;48.488;13.436;2023-08-31T12:21:46;19.60;58.90
11239;DHT22;5677;48.488;13.436;2023-08-31T12:24:13;19.60;59.10
11239;DHT22;5677;48.488;13.436;2023-08-31T12:26:42;19.60;58.90
11239;DHT22;5677;48.488;13.436;2023-08-31T12:29:09;19.60;59.20
11239;DHT22;5677;48.488;13.436;2023-08-31T12:31:36;19.60;59.40
11239;DHT22;5677;48.488;13.436;2023-08-31T12:34:03;19.70;59.60
11239;DHT22;5677;48.488;13.436;2023-08-31T12:36:33;19.70;59.60
11239;DHT22;5677;48.488;13.436;2023-08-31T12:39:02;19.70;59.70
11239;DHT22;5677;48.488;13.436;2023-08-31T12:41:33;19.70;59.60
11239;DHT22;5677;48.488;13.436;2023-08-31T12:44:00;19.70;59.50
11239;DHT22;5677;48.488;13.436;2023-08-31T12:46:28;19.70;59.50
11239;DHT22;5677;48.488;13.436;2023-08-31T12:48:56;19.70;59.30
11239;DHT22;5677;48.488;13.436;2023-08-31T12:51:23;19.70;59.40
11239;DHT22;5677;48.488;13.436;2023-08-31T12:53:51;19.70;59.50
11239;DHT22;5677;48.488;13.436;2023-08-31T12:56:18;19.80;59.30
11239;DHT22;5677;48.488;13.436;2023-08-31T12:58:48;19.70;59.30
11239;DHT22;5677;48.488;13.436;2023-08-31T13:01:16;19.70;58.80
11239;DHT22;5677;48.488;13.436;2023-08-31T13:03:44;19.70;59.30
11239;DHT22;5677;48.488;13.436;2023-08-31T13:06:11;19.70;59.70
11239;DHT22;5677;48.488;13.436;2023-08-31T13:08:38;19.80;59.80
11239;DHT22;5677;48.488;13.436;2023-08-31T13:11:06;19.70;59.40
11239;DHT22;5677;48.488;13.436;2023-08-31T13:13:33;19.80;59.70
11239;DHT22;5677;48.488;13.436;2023-08-31T13:16:00;19.80;59.80
11239;DHT22;5677;48.488;13.436;2023-08-31T13:18:28;19.80;59.80
11239;DHT22;5677;48.488;13.436;2023-08-31T13:20:55;19.80;59.80
11239;DHT22;5677;48.488;13.436;2023-08-31T13:23:23;19.90;59.80
11239;DHT22;5677;48.488;13.436;2023-08-31T13:25:50;19.90;59.90
11239;DHT22;5677;48.488;13.436;2023-08-31T13:28:18;19.90;60.10
11239;DHT22;5677;48.488;13.436;2023-08-31T13:30:45;19.90;60.10
11239;DHT22;5677;48.488;13.436;2023-08-31T13:33:13;19.90;59.70
11239;DHT22;5677;48.488;13.436;2023-08-31T13:35:40;19.90;59.30
11239;DHT22;5677;48.488;13.436;2023-08-31T13:38:07;19.90;58.70
11239;DHT22;5677;48.488;13.436;2023-08-31T13:40:34;19.90;59.50
11239;DHT22;5677;48.488;13.436;2023-08-31T13:43:02;19.90;59.90
11239;DHT22;5677;48.488;13.436;2023-08-31T13:45:32;19.90;60.20
11239;DHT22;5677;48.488;13.436;2023-08-31T13:47:59;19.90;60.30
11239;DHT22;5677;48.488;13.436;2023-08-31T13:50:26;20.00;60.30
11239;DHT22;5677;48.488;13.436;2023-08-31T13:52:53;20.00;59.80
11239;DHT22;5677;48.488;13.436;2023-08-31T13:55:20;20.00;59.30
11239;DHT22;5677;48.488;13.436;2023-08-31T13:57:48;20.00;59.00
11239;DHT22;5677;48.488;13.436;2023-08-31T14:00:16;19.90;58.60
11239;DHT22;5677;48.488;13.436;2023-08-31T14:02:45;19.90;59.30
11239;DHT22;5677;48.488;13.436;2023-08-31T14:05:12;19.90;59.70
11239;DHT22;5677;48.488;13.436;2023-08-31T14:07:40;20.00;59.90
11239;DHT22;5677;48.488;13.436;2023-08-31T14:10:08;20.00;60.10
11239;DHT22;5677;48.488;13.436;2023-08-31T14:12:35;20.00;59.90
11239;DHT22;5677;48.488;13.436;2023-08-31T14:15:03;20.00;60.10
11239;DHT22;5677;48.488;13.436;2023-08-31T14:17:31;20.00;60.00
11239;DHT22;5677;48.488;13.436;2023-08-31T14:20:00;20.00;60.50
11239;DHT22;5677;48.488;13.436;2023-08-31T14:22:31;20.00;60.60
11239;DHT22;5677;48.488;13.436;2023-08-31T14:24:58;20.00;60.70
11239;DHT22;5677;48.488;13.436;2023-08-31T14:27:26;20.00;60.40
11239;DHT22;5677;48.488;13.436;2023-08-31T14:29:55;20.00;60.60
11239;DHT22;5677;48.488;13.436;2023-08-31T14:32:23;20.00;60.30
11239;DHT22;5677;48.488;13.436;2023-08-31T14:34:50;20.00;60.60
11239;DHT22;5677;48.488;13.436;2023-08-31T14:37:18;20.00;60.30
11239;DHT22;5677;48.488;13.436;2023-08-31T14:39:45;20.00;60.40
11239;DHT22;5677;48.488;13.436;2023-08-31T14:42:12;20.00;60.30
11239;DHT22;5677;48.488;13.436;2023-08-31T14:44:40;20.00;60.30
11239;DHT22;5677;48.488;13.436;2023-08-31T14:47:07;20.00;59.50
11239;DHT22;5677;48.488;13.436;2023-08-31T14:49:34;20.00;59.80
11239;DHT22;5677;48.488;13.436;2023-08-31T14:52:01;20.00;60.10
11239;DHT22;5677;48.488;13.436;2023-08-31T14:54:33;20.00;60.20
11239;DHT22;5677;48.488;13.436;2023-08-31T14:57:00;20.00;59.90
11239;DHT22;5677;48.488;13.436;2023-08-31T14:59:29;20.00;59.90
11239;DHT22;5677;48.488;13.436;2023-08-31T15:01:56;20.00;60.10
11239;DHT22;5677;48.488;13.436;2023-08-31T15:04:23;20.00;60.20
11239;DHT22;5677;48.488;13.436;2023-08-31T15:06:50;20.00;60.20
11239;DHT22;5677;48.488;13.436;2023-08-31T15:09:19;20.00;60.30
11239;DHT22;5677;48.488;13.436;2023-08-31T15:11:48;20.00;60.10
11239;DHT22;5677;48.488;13.436;2023-08-31T15:14:15;20.00;60.00
11239;DHT22;5677;48.488;13.436;2023-08-31T15:16:42;20.00;60.30
11239;DHT22;5677;48.488;13.436;2023-08-31T15:19:09;20.00;60.20
11239;DHT22;5677;48.488;13.436;2023-08-31T15:21:36;19.90;60.20
11239;DHT22;5677;48.488;13.436;2023-08-31T15:24:04;19.90;60.20
11239;DHT22;5677;48.488;13.436;2023-08-31T15:26:31;19.90;59.90
11239;DHT22;5677;48.488;13.436;2023-08-31T15:28:59;19.90;60.20
11239;DHT22;5677;48.488;13.436;2023-08-31T15:31:26;19.90;60.40
11239;DHT22;5677;48.488;13.436;2023-08-31T15:33:53;19.90;60.60
11239;DHT22;5677;48.488;13.436;2023-08-31T15:36:20;19.90;60.50